KDTW/DTW METAR and TAF weather

Enter ICAO airport designator
Station Type Date Time Source
KDTW METAR 2019/08/17 10:53 UTC NOAA

KDTW 171053Z 18005KT 7SM FEW120 SCT170 BKN240 20/19 A2988 RMK AO2 SLP116 T02000189 $


Station Type Date Time Source
KDTW Decoded METAR 2019/08/17 10:53 UTC NOAA

Station name not available
Aug 17, 2019 - 06:53 AM EDT / 2019.08.17 1053 UTC
Wind: from the S (180 degrees) at 6 MPH (5 KT):0
Visibility: 7 mile(s):0
Sky conditions: mostly cloudy
Temperature: 68.0 F (20.0 C)
Dew Point: 66.0 F (18.9 C)
Relative Humidity: 93%
Pressure (altimeter): 29.88 in. Hg (1011 hPa)
ob: KDTW 171053Z 18005KT 7SM FEW120 SCT170 BKN240 20/19 A2988 RMK AO2 SLP116 T02000189
cycle: 11

Station Type Date Time Source
KDTW TAF 2019/08/17 12:22 UTC NOAA

TAF KDTW 171120Z 1712/1818 20006KT P6SM BKN100
FM171300 24007KT P6SM SCT025
FM171600 26010KT P6SM SCT040 BKN250
FM171900 24011KT P6SM BKN060
FM180400 21004KT P6SM OVC040
FM181200 22007KT P6SM OVC050

Example: see airport list